createdAt,value
2022-12-13T00:00:30.514Z,0.00
2022-12-13T00:01:30.522Z,0.00
2022-12-13T00:02:30.542Z,0.00
2022-12-13T00:03:30.480Z,0.00
2022-12-13T00:04:30.509Z,0.00
2022-12-13T00:05:30.470Z,0.00
2022-12-13T00:06:30.467Z,0.00
2022-12-13T00:07:30.443Z,0.00
2022-12-13T00:08:30.472Z,0.00
2022-12-13T00:09:30.427Z,0.00
2022-12-13T00:10:30.409Z,0.00
2022-12-13T00:11:30.406Z,0.00
2022-12-13T00:12:30.385Z,0.00
2022-12-13T00:13:30.384Z,0.00
2022-12-13T00:14:30.372Z,0.00
2022-12-13T00:15:30.364Z,0.00
2022-12-13T00:16:30.428Z,0.00
2022-12-13T00:17:30.343Z,0.00
2022-12-13T00:18:30.328Z,0.00
2022-12-13T00:19:30.319Z,0.00
2022-12-13T00:20:30.309Z,0.00
2022-12-13T00:21:30.319Z,0.00
2022-12-13T00:22:30.289Z,0.00
2022-12-13T00:23:30.280Z,0.00
2022-12-13T00:24:30.265Z,0.00
2022-12-13T00:25:30.254Z,0.00
2022-12-13T00:26:30.259Z,0.00
2022-12-13T00:27:30.231Z,0.00
2022-12-13T00:28:30.225Z,0.00
2022-12-13T00:29:30.214Z,0.00
2022-12-13T00:30:30.217Z,0.00
2022-12-13T00:32:30.188Z,0.00
2022-12-13T00:33:30.183Z,0.00
2022-12-13T00:34:30.154Z,0.00
2022-12-13T00:35:30.157Z,0.00
2022-12-13T00:36:30.148Z,0.00
2022-12-13T00:37:30.155Z,0.00
2022-12-13T00:38:30.117Z,0.00
2022-12-13T00:39:30.109Z,0.00
2022-12-13T00:40:30.092Z,0.00
2022-12-13T00:41:30.130Z,0.00
2022-12-13T00:42:30.076Z,0.00
2022-12-13T00:43:30.065Z,0.00
2022-12-13T00:44:30.068Z,0.00
2022-12-13T00:45:30.042Z,0.00
2022-12-13T00:46:30.098Z,0.00
2022-12-13T00:47:30.026Z,0.00
2022-12-13T00:48:30.005Z,0.00
2022-12-13T00:49:29.999Z,0.00
2022-12-13T00:50:29.996Z,0.00
2022-12-13T00:51:29.986Z,0.00
2022-12-13T00:52:29.986Z,0.00
2022-12-13T00:53:29.956Z,0.00
2022-12-13T00:54:29.958Z,0.00
2022-12-13T00:55:29.931Z,0.00
2022-12-13T00:56:29.918Z,0.00
2022-12-13T00:57:29.927Z,0.00
2022-12-13T00:58:29.909Z,0.00
2022-12-13T00:59:29.890Z,0.00
2022-12-13T01:00:29.891Z,0.00
2022-12-13T01:01:29.904Z,0.00
2022-12-13T01:02:29.874Z,0.00
2022-12-13T01:03:29.867Z,0.00
2022-12-13T01:04:29.841Z,0.00
2022-12-13T01:06:04.067Z,0.00
2022-12-13T01:06:29.833Z,0.00
2022-12-13T01:07:29.829Z,0.00
2022-12-13T01:08:29.862Z,0.00
2022-12-13T01:09:29.813Z,0.00
2022-12-13T01:10:29.780Z,0.00
2022-12-13T01:11:29.763Z,0.00
2022-12-13T01:12:29.773Z,0.00
2022-12-13T01:13:29.744Z,0.00
2022-12-13T01:14:29.739Z,0.00
2022-12-13T01:15:29.726Z,0.00
2022-12-13T01:16:29.827Z,0.00
2022-12-13T01:17:29.719Z,0.00
2022-12-13T01:18:29.689Z,0.00
2022-12-13T01:19:29.681Z,0.00
2022-12-13T01:20:29.667Z,0.00
2022-12-13T01:21:29.720Z,0.00
2022-12-13T01:22:29.672Z,0.00
2022-12-13T01:23:29.636Z,0.00
2022-12-13T01:24:29.632Z,0.00
2022-12-13T01:25:29.622Z,0.00
2022-12-13T01:26:29.606Z,0.00
2022-12-13T01:27:29.622Z,0.00
2022-12-13T01:28:29.586Z,0.00
2022-12-13T01:29:29.576Z,0.00
2022-12-13T01:30:29.651Z,0.00
2022-12-13T01:31:29.565Z,0.00
2022-12-13T01:32:29.565Z,0.00
2022-12-13T01:33:29.537Z,0.00
2022-12-13T01:34:29.520Z,0.00
2022-12-13T01:35:29.509Z,0.00
2022-12-13T01:36:29.504Z,0.00
2022-12-13T01:37:29.514Z,0.00
2022-12-13T01:38:29.480Z,0.00
2022-12-13T01:39:29.481Z,0.00
2022-12-13T01:40:29.458Z,0.00
2022-12-13T01:41:29.447Z,0.00
2022-12-13T01:42:29.457Z,0.00
2022-12-13T01:43:29.430Z,0.00
2022-12-13T01:44:29.418Z,0.00
2022-12-13T01:45:29.403Z,0.00
2022-12-13T01:46:29.423Z,0.00
2022-12-13T01:47:29.410Z,0.00
2022-12-13T01:48:29.375Z,0.00
2022-12-13T01:49:29.361Z,0.00
2022-12-13T01:50:29.355Z,0.00
2022-12-13T01:51:29.342Z,0.00
2022-12-13T01:52:29.352Z,0.00
2022-12-13T01:53:29.327Z,0.00
2022-12-13T01:54:34.101Z,0.00
2022-12-13T01:55:29.309Z,0.00
2022-12-13T01:56:29.286Z,0.00
2022-12-13T01:57:29.299Z,0.00
2022-12-13T01:58:29.267Z,0.00
2022-12-13T01:59:29.252Z,0.00
2022-12-13T02:00:29.252Z,0.00
2022-12-13T02:01:29.284Z,0.00
2022-12-13T02:02:29.252Z,0.00
2022-12-13T02:03:29.236Z,0.00
2022-12-13T02:04:29.208Z,0.00
2022-12-13T02:05:29.317Z,0.00
2022-12-13T02:06:29.188Z,0.00
2022-12-13T02:07:29.198Z,0.00
2022-12-13T02:08:29.234Z,0.00
2022-12-13T02:09:29.164Z,0.00
2022-12-13T02:10:29.147Z,0.00
2022-12-13T02:11:29.136Z,0.00
2022-12-13T02:12:29.916Z,0.00
2022-12-13T02:13:29.146Z,0.00
2022-12-13T02:14:29.101Z,0.00
2022-12-13T02:15:29.113Z,0.00
2022-12-13T02:16:29.174Z,0.00
2022-12-13T02:17:29.090Z,0.00
2022-12-13T02:18:29.057Z,0.00
2022-12-13T02:19:29.079Z,0.00
2022-12-13T02:20:29.039Z,0.00
2022-12-13T02:21:29.032Z,0.00
2022-12-13T02:22:29.034Z,0.00
2022-12-13T02:23:29.016Z,0.00
2022-12-13T02:24:29.004Z,0.00
2022-12-13T02:25:29.241Z,0.00
2022-12-13T02:26:29.003Z,0.00
2022-12-13T02:27:30.725Z,0.00
2022-12-13T02:28:31.757Z,0.00
2022-12-13T02:29:30.727Z,0.00
2022-12-13T02:30:28.936Z,0.00
2022-12-13T02:31:28.937Z,0.00
2022-12-13T02:32:28.933Z,0.00
2022-12-13T02:33:28.905Z,0.00
2022-12-13T02:34:28.910Z,0.00
2022-12-13T02:35:28.880Z,0.00
2022-12-13T02:36:28.875Z,0.00
2022-12-13T02:37:28.881Z,0.00
2022-12-13T02:38:28.852Z,0.00
2022-12-13T02:39:29.809Z,0.00
2022-12-13T02:40:28.825Z,0.00
2022-12-13T02:41:28.814Z,0.00
2022-12-13T02:42:28.829Z,0.00
2022-12-13T02:43:33.872Z,0.00
2022-12-13T02:44:28.796Z,0.00
2022-12-13T02:45:28.776Z,0.00
2022-12-13T02:46:28.809Z,0.00
2022-12-13T02:47:28.771Z,0.00
2022-12-13T02:48:28.744Z,0.00
2022-12-13T02:49:28.737Z,0.00
2022-12-13T02:50:28.714Z,0.00
2022-12-13T02:51:28.716Z,0.00
2022-12-13T02:52:28.720Z,0.00
2022-12-13T02:53:28.711Z,0.00
2022-12-13T02:54:28.677Z,0.00
2022-12-13T02:55:28.673Z,0.00
2022-12-13T02:56:28.662Z,0.00
2022-12-13T02:57:28.662Z,0.00
2022-12-13T02:58:28.634Z,0.00
2022-12-13T02:59:28.652Z,0.00
2022-12-13T03:00:28.616Z,0.00
2022-12-13T03:01:29.890Z,0.00
2022-12-13T03:02:31.555Z,0.00
2022-12-13T03:03:28.664Z,0.00
2022-12-13T03:04:28.586Z,0.00
2022-12-13T03:05:28.562Z,0.00
2022-12-13T03:06:33.907Z,0.00
2022-12-13T03:07:28.575Z,0.00
2022-12-13T03:08:28.606Z,0.00
2022-12-13T03:09:28.539Z,0.00
2022-12-13T03:10:28.516Z,0.00
2022-12-13T03:11:28.496Z,0.00
2022-12-13T03:12:28.499Z,0.00
2022-12-13T03:13:29.112Z,0.00
2022-12-13T03:14:31.638Z,0.00
2022-12-13T03:15:28.458Z,0.00
2022-12-13T03:16:28.531Z,0.00
2022-12-13T03:17:28.464Z,0.00
2022-12-13T03:18:28.424Z,0.00
2022-12-13T03:19:28.405Z,0.00
2022-12-13T03:20:28.405Z,0.00
2022-12-13T03:21:28.391Z,0.00
2022-12-13T03:22:28.407Z,0.00
2022-12-13T03:23:28.386Z,0.00
2022-12-13T03:24:28.371Z,0.00
2022-12-13T03:25:31.356Z,0.00
2022-12-13T03:26:28.345Z,0.00
2022-12-13T03:27:28.345Z,0.00
2022-12-13T03:28:28.323Z,0.00
2022-12-13T03:29:28.308Z,0.00
2022-12-13T03:30:28.311Z,0.00
2022-12-13T03:31:28.340Z,0.00
2022-12-13T03:32:28.277Z,0.00
2022-12-13T03:33:28.293Z,0.00
2022-12-13T03:34:44.629Z,0.00
2022-12-13T03:35:34.521Z,0.00
2022-12-13T03:36:28.244Z,0.00
2022-12-13T03:37:28.270Z,0.00
2022-12-13T03:38:28.231Z,0.00
2022-12-13T03:39:28.211Z,0.00
2022-12-13T03:40:28.199Z,0.00
2022-12-13T03:41:28.180Z,0.00
2022-12-13T03:42:28.174Z,0.00
2022-12-13T03:43:28.174Z,0.00
2022-12-13T03:44:31.429Z,0.00
2022-12-13T03:45:28.134Z,0.00
2022-12-13T03:46:28.148Z,0.00
2022-12-13T03:47:28.122Z,0.00
2022-12-13T03:48:28.142Z,0.00
2022-12-13T03:49:35.011Z,0.00
2022-12-13T03:50:28.089Z,0.00
2022-12-13T03:51:28.084Z,0.00
2022-12-13T03:52:28.058Z,0.00
2022-12-13T03:53:32.215Z,0.00
2022-12-13T03:54:28.053Z,0.00
2022-12-13T03:55:28.038Z,0.00
2022-12-13T03:56:28.033Z,0.00
2022-12-13T03:57:28.011Z,0.00
2022-12-13T03:58:35.381Z,0.00
2022-12-13T03:59:27.996Z,0.00
2022-12-13T04:00:27.978Z,0.00
2022-12-13T04:01:28.007Z,0.00
2022-12-13T04:02:31.146Z,0.00
2022-12-13T04:03:28.011Z,0.00
2022-12-13T04:04:27.947Z,0.00
2022-12-13T04:05:27.930Z,0.00
2022-12-13T04:06:32.823Z,0.00
2022-12-13T04:08:38.615Z,0.00
2022-12-13T04:09:39.506Z,0.00
2022-12-13T04:10:39.495Z,0.00
2022-12-13T04:11:42.445Z,0.00
2022-12-13T04:12:39.468Z,0.00
2022-12-13T04:13:39.483Z,0.00
2022-12-13T04:14:39.456Z,0.00
2022-12-13T04:15:39.442Z,0.00
2022-12-13T04:16:39.471Z,0.00
2022-12-13T04:17:39.408Z,0.00
2022-12-13T04:18:39.427Z,0.00
2022-12-13T04:19:39.399Z,0.00
2022-12-13T04:20:39.396Z,0.00
2022-12-13T04:21:39.392Z,0.00
2022-12-13T04:22:39.377Z,0.00
2022-12-13T04:23:39.362Z,0.00
2022-12-13T04:24:39.348Z,0.00
2022-12-13T04:25:39.344Z,0.00
2022-12-13T04:26:39.322Z,0.00
2022-12-13T04:27:39.309Z,0.00
2022-12-13T04:28:39.319Z,0.00
2022-12-13T04:29:39.281Z,0.00
2022-12-13T04:30:39.286Z,0.00
2022-12-13T04:31:39.283Z,0.00
2022-12-13T04:32:39.263Z,0.00
2022-12-13T04:33:39.285Z,0.00
2022-12-13T04:34:39.229Z,0.00
2022-12-13T04:35:39.223Z,0.00
2022-12-13T04:36:39.225Z,0.00
2022-12-13T04:37:39.203Z,0.00
2022-12-13T04:38:39.221Z,0.00
2022-12-13T04:39:39.181Z,0.00
2022-12-13T04:40:39.170Z,0.00
2022-12-13T04:41:39.167Z,0.00
2022-12-13T04:42:39.151Z,0.00
2022-12-13T04:43:39.173Z,0.00
2022-12-13T04:44:42.247Z,0.00
2022-12-13T04:45:39.174Z,0.00
2022-12-13T04:46:39.124Z,0.00
2022-12-13T04:47:39.101Z,0.00
2022-12-13T04:48:39.097Z,0.00
2022-12-13T04:49:39.072Z,0.00
2022-12-13T04:50:39.069Z,0.00
2022-12-13T04:51:39.061Z,0.00
2022-12-13T04:52:39.041Z,0.00
2022-12-13T04:53:39.049Z,0.00
2022-12-13T04:54:39.017Z,0.00
2022-12-13T04:55:39.006Z,0.00
2022-12-13T04:56:39.000Z,0.00
2022-12-13T04:57:38.998Z,0.00
2022-12-13T04:58:38.988Z,0.00
2022-12-13T04:59:38.971Z,0.00
2022-12-13T05:00:38.980Z,0.00
2022-12-13T05:01:38.964Z,0.00
2022-12-13T05:02:38.991Z,0.00
2022-12-13T05:03:38.944Z,0.00
2022-12-13T05:04:38.915Z,0.00
2022-12-13T05:05:38.904Z,0.00
2022-12-13T05:06:38.904Z,0.00
2022-12-13T05:07:42.431Z,0.00
2022-12-13T05:08:38.887Z,0.00
2022-12-13T05:09:38.865Z,0.00
2022-12-13T05:10:38.848Z,0.00
2022-12-13T05:11:38.884Z,0.00
2022-12-13T05:12:38.837Z,0.00
2022-12-13T05:13:38.847Z,0.00
2022-12-13T05:14:38.802Z,0.00
2022-12-13T05:15:38.809Z,0.00
2022-12-13T05:16:38.794Z,0.00
2022-12-13T05:17:38.799Z,0.00
2022-12-13T05:18:38.782Z,0.00
2022-12-13T05:19:38.763Z,0.00
2022-12-13T05:20:38.747Z,0.00
2022-12-13T05:21:38.738Z,0.00
2022-12-13T05:22:38.707Z,0.00
2022-12-13T05:23:38.718Z,0.00
2022-12-13T05:24:38.711Z,0.00
2022-12-13T05:25:38.681Z,0.00
2022-12-13T05:26:38.674Z,0.00
2022-12-13T05:27:38.673Z,0.00
2022-12-13T05:28:38.665Z,0.00
2022-12-13T05:29:38.649Z,0.00
2022-12-13T05:30:38.631Z,0.00
2022-12-13T05:31:38.651Z,0.00
2022-12-13T05:32:43.019Z,0.00
2022-12-13T05:33:38.631Z,0.00
2022-12-13T05:34:38.611Z,0.00
2022-12-13T05:35:38.577Z,0.00
2022-12-13T05:36:38.567Z,0.00
2022-12-13T05:37:38.553Z,0.00
2022-12-13T05:38:38.636Z,0.00
2022-12-13T05:39:38.613Z,0.00
2022-12-13T05:40:38.521Z,0.00
2022-12-13T05:41:38.516Z,0.00
2022-12-13T05:42:38.498Z,0.00
2022-12-13T05:43:42.664Z,0.00
2022-12-13T05:44:38.527Z,0.00
2022-12-13T05:45:38.500Z,0.00
2022-12-13T05:46:41.560Z,0.00
2022-12-13T05:47:38.475Z,0.00
2022-12-13T05:48:38.467Z,0.00
2022-12-13T05:49:39.666Z,0.00
2022-12-13T05:50:38.514Z,0.00
2022-12-13T05:51:38.406Z,0.00
2022-12-13T05:52:38.539Z,0.00
2022-12-13T05:53:38.407Z,0.00
2022-12-13T05:54:38.476Z,0.00
2022-12-13T05:55:38.364Z,0.00
2022-12-13T05:56:38.422Z,0.00
2022-12-13T05:57:38.336Z,0.00
2022-12-13T05:58:38.486Z,0.00
2022-12-13T05:59:38.314Z,0.00
2022-12-13T06:00:38.392Z,0.00
2022-12-13T06:01:43.743Z,0.00
2022-12-13T06:02:38.440Z,0.00
2022-12-13T06:03:38.505Z,0.00
2022-12-13T06:04:38.269Z,0.00
2022-12-13T06:05:38.253Z,0.00
2022-12-13T06:06:38.304Z,0.00
2022-12-13T06:07:38.231Z,0.00
2022-12-13T06:08:38.325Z,0.00
2022-12-13T06:09:39.983Z,0.00
2022-12-13T06:10:38.227Z,0.00
2022-12-13T06:11:43.257Z,0.00
2022-12-13T06:12:43.143Z,0.00
2022-12-13T06:13:42.867Z,0.00
2022-12-13T06:14:38.167Z,0.00
2022-12-13T06:15:38.151Z,0.00
2022-12-13T06:16:38.184Z,0.00
2022-12-13T06:17:38.115Z,0.00
2022-12-13T06:18:38.127Z,0.00
2022-12-13T06:19:38.100Z,0.00
2022-12-13T06:20:38.093Z,0.00
2022-12-13T06:21:43.786Z,0.00
2022-12-13T06:22:38.068Z,0.00
2022-12-13T06:23:38.071Z,0.00
2022-12-13T06:24:38.354Z,0.00
2022-12-13T06:25:38.039Z,0.00
2022-12-13T06:26:38.023Z,0.00
2022-12-13T06:27:38.020Z,0.00
2022-12-13T06:28:38.018Z,0.00
2022-12-13T06:29:38.330Z,0.00
2022-12-13T06:30:42.838Z,0.00
2022-12-13T06:31:37.976Z,0.00
2022-12-13T06:32:42.543Z,0.00
2022-12-13T06:33:37.971Z,0.00
2022-12-13T06:34:37.958Z,0.00
2022-12-13T06:35:41.206Z,0.00
2022-12-13T06:36:37.912Z,0.00
2022-12-13T06:37:37.916Z,0.00
2022-12-13T06:38:43.085Z,0.00
2022-12-13T06:39:37.885Z,0.00
2022-12-13T06:40:37.874Z,0.00
2022-12-13T06:41:37.892Z,0.00
2022-12-13T06:42:37.894Z,0.00
2022-12-13T06:43:37.860Z,0.00
2022-12-13T06:44:37.831Z,0.00
2022-12-13T06:45:37.823Z,0.00
2022-12-13T06:46:40.847Z,0.00
2022-12-13T06:47:37.796Z,0.00
2022-12-13T06:48:37.793Z,0.00
2022-12-13T06:49:37.794Z,0.00
2022-12-13T06:50:37.788Z,0.00
2022-12-13T06:51:37.758Z,4.00
2022-12-13T06:52:37.764Z,4.00
2022-12-13T06:53:37.745Z,0.00
2022-12-13T06:54:37.736Z,0.00
2022-12-13T06:55:37.725Z,4.00
2022-12-13T06:56:37.704Z,0.00
2022-12-13T06:57:37.692Z,4.00
2022-12-13T06:58:37.678Z,4.00
2022-12-13T06:59:37.684Z,4.00
2022-12-13T07:00:49.435Z,4.00
2022-12-13T07:01:38.105Z,4.00
2022-12-13T07:02:37.778Z,4.00
2022-12-13T07:03:37.660Z,4.00
2022-12-13T07:04:37.633Z,8.00
2022-12-13T07:05:37.607Z,8.00
2022-12-13T07:06:37.602Z,8.00
2022-12-13T07:07:37.589Z,12.00
2022-12-13T07:08:37.614Z,12.00
2022-12-13T07:09:37.571Z,16.00
2022-12-13T07:10:37.555Z,16.00
2022-12-13T07:11:37.535Z,20.00
2022-12-13T07:12:37.535Z,20.00
2022-12-13T07:13:37.517Z,24.00
2022-12-13T07:14:40.743Z,28.00
2022-12-13T07:15:37.534Z,28.00
2022-12-13T07:16:37.494Z,28.00
2022-12-13T07:17:37.473Z,32.00
2022-12-13T07:18:37.481Z,36.00
2022-12-13T07:19:37.472Z,40.00
2022-12-13T07:20:37.444Z,44.00
2022-12-13T07:21:37.567Z,52.00
2022-12-13T07:22:42.966Z,56.00
2022-12-13T07:23:37.437Z,60.00
2022-12-13T07:24:37.425Z,68.00
2022-12-13T07:25:37.400Z,72.00
2022-12-13T07:26:37.380Z,76.00
2022-12-13T07:27:37.397Z,84.00
2022-12-13T07:28:37.355Z,92.00
2022-12-13T07:29:37.368Z,100.00
2022-12-13T07:30:41.128Z,112.00
2022-12-13T07:31:37.382Z,124.00
2022-12-13T07:32:37.326Z,132.00
2022-12-13T07:33:37.323Z,144.00
2022-12-13T07:34:37.316Z,156.00
2022-12-13T07:35:37.879Z,164.00
2022-12-13T07:36:37.290Z,176.00
2022-12-13T07:37:37.269Z,188.00
2022-12-13T07:38:37.256Z,196.00
2022-12-13T07:39:37.262Z,208.00
2022-12-13T07:40:37.291Z,220.00
2022-12-13T07:41:37.237Z,236.00
2022-12-13T07:42:37.211Z,244.00
2022-12-13T07:43:37.217Z,260.00
2022-12-13T07:44:37.203Z,276.00
2022-12-13T07:45:37.204Z,288.00
2022-12-13T07:46:37.252Z,304.00
2022-12-13T07:47:37.148Z,320.00
2022-12-13T07:48:37.152Z,332.00
2022-12-13T07:49:37.201Z,344.00
2022-12-13T07:50:37.987Z,356.00
2022-12-13T07:51:37.164Z,372.00
2022-12-13T07:52:37.114Z,384.00
2022-12-13T07:53:37.081Z,400.00
2022-12-13T07:54:37.084Z,416.00
2022-12-13T07:55:37.105Z,428.00
2022-12-13T07:56:37.057Z,444.00
2022-12-13T07:57:37.039Z,456.00
2022-12-13T07:58:37.039Z,472.00
2022-12-13T07:59:37.028Z,484.00
2022-12-13T08:00:37.043Z,496.00
2022-12-13T08:01:37.082Z,508.00
2022-12-13T08:02:36.997Z,520.00
2022-12-13T08:03:36.991Z,532.00
2022-12-13T08:04:37.623Z,544.00
2022-12-13T08:05:38.856Z,560.00
2022-12-13T08:06:36.998Z,576.00
2022-12-13T08:07:36.958Z,588.00
2022-12-13T08:08:36.975Z,604.00
2022-12-13T08:09:36.931Z,616.00
2022-12-13T08:10:36.943Z,632.00
2022-12-13T08:11:36.929Z,648.00
2022-12-13T08:12:36.951Z,660.00
2022-12-13T08:13:36.896Z,680.00
2022-12-13T08:14:36.875Z,700.00
2022-12-13T08:15:36.896Z,704.00
2022-12-13T08:16:36.908Z,712.00
2022-12-13T08:17:36.868Z,716.00
2022-12-13T08:18:36.848Z,724.00
2022-12-13T08:19:36.821Z,732.00
2022-12-13T08:20:36.804Z,740.00
2022-12-13T08:21:53.976Z,752.00
2022-12-13T08:22:36.920Z,768.00
2022-12-13T08:23:36.817Z,780.00
2022-12-13T08:24:36.761Z,792.00
2022-12-13T08:25:36.770Z,804.00
2022-12-13T08:26:36.763Z,816.00
2022-12-13T08:27:36.738Z,828.00
2022-12-13T08:28:36.749Z,840.00
2022-12-13T08:29:36.752Z,852.00
2022-12-13T08:30:36.718Z,860.00
2022-12-13T08:31:36.796Z,876.00
2022-12-13T08:32:36.674Z,892.00
2022-12-13T08:33:36.664Z,916.00
2022-12-13T08:34:36.673Z,936.00
2022-12-13T08:35:36.677Z,964.00
2022-12-13T08:36:36.625Z,992.00
2022-12-13T08:37:36.623Z,1024.00
2022-12-13T08:38:36.608Z,1052.00
2022-12-13T08:39:37.016Z,1092.00
2022-12-13T08:40:36.578Z,1136.00
2022-12-13T08:41:39.352Z,1172.00
2022-12-13T08:42:36.599Z,1216.00
2022-12-13T08:43:36.556Z,1256.00
2022-12-13T08:44:36.555Z,1288.00
2022-12-13T08:45:36.561Z,1320.00
2022-12-13T08:46:36.588Z,1356.00
2022-12-13T08:47:41.658Z,1388.00
2022-12-13T08:48:36.531Z,1400.00
2022-12-13T08:49:36.490Z,1416.00
2022-12-13T08:50:36.508Z,1424.00
2022-12-13T08:51:36.471Z,1424.00
2022-12-13T08:52:39.272Z,1424.00
2022-12-13T08:53:40.971Z,1428.00
2022-12-13T08:54:36.432Z,1436.00
2022-12-13T08:55:36.446Z,1436.00
2022-12-13T08:56:36.400Z,1428.00
2022-12-13T08:57:36.390Z,1416.00
2022-12-13T08:58:36.385Z,1408.00
2022-12-13T08:59:36.381Z,1404.00
2022-12-13T09:00:36.706Z,1392.00
2022-12-13T09:01:36.459Z,1392.00
2022-12-13T09:02:38.435Z,1396.00
2022-12-13T09:03:36.339Z,1392.00
2022-12-13T09:04:36.336Z,1388.00
2022-12-13T09:05:36.304Z,1388.00
2022-12-13T09:06:36.303Z,1384.00
2022-12-13T09:07:36.482Z,1384.00
2022-12-13T09:08:36.328Z,1400.00
2022-12-13T09:09:37.131Z,1424.00
2022-12-13T09:10:38.585Z,1436.00
2022-12-13T09:11:40.087Z,1440.00
2022-12-13T09:12:41.763Z,1440.00
2022-12-13T09:13:43.143Z,1440.00
2022-12-13T09:14:36.225Z,1436.00
2022-12-13T09:15:36.267Z,1412.00
2022-12-13T09:16:36.470Z,1392.00
2022-12-13T09:17:37.139Z,1376.00
2022-12-13T09:18:36.945Z,1364.00
2022-12-13T09:19:37.028Z,1352.00
2022-12-13T09:20:41.562Z,1356.00
2022-12-13T09:21:36.349Z,1360.00
2022-12-13T09:22:36.127Z,1356.00
2022-12-13T09:23:36.113Z,1360.00
2022-12-13T09:24:37.114Z,1364.00
2022-12-13T09:25:37.125Z,1368.00
2022-12-13T09:26:37.662Z,1396.00
2022-12-13T09:27:39.933Z,1440.00
2022-12-13T09:28:36.077Z,1476.00
2022-12-13T09:29:36.072Z,1496.00
2022-12-13T09:30:36.085Z,1496.00
2022-12-13T09:31:36.099Z,1492.00
2022-12-13T09:32:36.015Z,1500.00
2022-12-13T09:33:41.489Z,1528.00
2022-12-13T09:34:36.138Z,1544.00
2022-12-13T09:35:36.035Z,1540.00
2022-12-13T09:36:35.977Z,1520.00
2022-12-13T09:37:39.850Z,1540.00
2022-12-13T09:38:35.968Z,1576.00
2022-12-13T09:39:35.937Z,1584.00
2022-12-13T09:40:37.827Z,1604.00
2022-12-13T09:41:40.719Z,1656.00
2022-12-13T09:42:35.925Z,1752.00
2022-12-13T09:43:43.065Z,1832.00
2022-12-13T09:44:43.862Z,1960.00
2022-12-13T09:45:35.952Z,2084.00
2022-12-13T09:46:44.252Z,2188.00
2022-12-13T09:47:36.079Z,2264.00
2022-12-13T09:48:35.866Z,2324.00
2022-12-13T09:49:36.041Z,2316.00
2022-12-13T09:50:37.492Z,2292.00
2022-12-13T09:51:43.632Z,2280.00
2022-12-13T09:52:35.808Z,2276.00
2022-12-13T09:53:36.283Z,2244.00
2022-12-13T09:54:36.502Z,2192.00
2022-12-13T09:55:35.769Z,2140.00
2022-12-13T09:56:35.767Z,2096.00
2022-12-13T09:57:35.754Z,2068.00
2022-12-13T09:58:35.770Z,2060.00
2022-12-13T09:59:35.731Z,2064.00
2022-12-13T10:00:35.729Z,2056.00
2022-12-13T10:01:35.767Z,2056.00
2022-12-13T10:02:35.740Z,2072.00
2022-12-13T10:03:35.696Z,2076.00
2022-12-13T10:04:35.673Z,2076.00
2022-12-13T10:05:39.242Z,2060.00
2022-12-13T10:06:35.650Z,2068.00
2022-12-13T10:07:42.230Z,2072.00
2022-12-13T10:08:35.624Z,2100.00
2022-12-13T10:09:35.637Z,2128.00
2022-12-13T10:10:35.607Z,2140.00
2022-12-13T10:11:35.596Z,2180.00
2022-12-13T10:12:37.855Z,2200.00
2022-12-13T10:13:35.579Z,2216.00
2022-12-13T10:14:35.572Z,2228.00
2022-12-13T10:15:35.575Z,2244.00
2022-12-13T10:16:37.061Z,2268.00
2022-12-13T10:17:38.368Z,2280.00
2022-12-13T10:18:35.515Z,2300.00
2022-12-13T10:19:35.514Z,2324.00
2022-12-13T10:20:35.514Z,2328.00
2022-12-13T10:21:35.506Z,2304.00
2022-12-13T10:22:35.486Z,2244.00
2022-12-13T10:24:06.908Z,2208.00
2022-12-13T10:24:37.643Z,2200.00
2022-12-13T10:25:35.484Z,2216.00
2022-12-13T10:26:35.500Z,2304.00
2022-12-13T10:27:35.537Z,2328.00
2022-12-13T10:28:35.420Z,2356.00
2022-12-13T10:29:35.416Z,2380.00
2022-12-13T10:30:35.392Z,2412.00
2022-12-13T10:31:35.464Z,2384.00
2022-12-13T10:32:37.557Z,2384.00
2022-12-13T10:33:35.405Z,2396.00
2022-12-13T10:34:35.346Z,2416.00
2022-12-13T10:35:35.342Z,2452.00
2022-12-13T10:36:35.345Z,2448.00
2022-12-13T10:37:35.495Z,2448.00
2022-12-13T10:38:35.309Z,2428.00
2022-12-13T10:39:35.297Z,2424.00
2022-12-13T10:40:35.289Z,2380.00
2022-12-13T10:41:35.267Z,2336.00
2022-12-13T10:42:35.275Z,2324.00
2022-12-13T10:43:35.245Z,2320.00
2022-12-13T10:44:35.236Z,2316.00
2022-12-13T10:45:35.318Z,2300.00
2022-12-13T10:46:38.778Z,2296.00
2022-12-13T10:47:35.237Z,2288.00
2022-12-13T10:48:38.375Z,2292.00
2022-12-13T10:49:35.184Z,2300.00
2022-12-13T10:50:35.230Z,2300.00
2022-12-13T10:51:35.168Z,2292.00
2022-12-13T10:52:35.170Z,2268.00
2022-12-13T10:53:35.147Z,2268.00
2022-12-13T10:54:38.320Z,2256.00
2022-12-13T10:55:35.129Z,2232.00
2022-12-13T10:56:35.128Z,2196.00
2022-12-13T10:57:35.094Z,2156.00
2022-12-13T10:58:35.110Z,2116.00
2022-12-13T10:59:35.074Z,2124.00
2022-12-13T11:00:35.066Z,2164.00
2022-12-13T11:01:35.098Z,2200.00
2022-12-13T11:02:35.121Z,2228.00
2022-12-13T11:03:35.039Z,2244.00
2022-12-13T11:04:35.046Z,2280.00
2022-12-13T11:05:35.018Z,2316.00
2022-12-13T11:06:35.001Z,2352.00
2022-12-13T11:07:34.993Z,2400.00
2022-12-13T11:08:34.979Z,2428.00
2022-12-13T11:09:38.173Z,2464.00
2022-12-13T11:10:36.022Z,2476.00
2022-12-13T11:11:34.958Z,2472.00
2022-12-13T11:12:34.938Z,2476.00
2022-12-13T11:13:34.922Z,2500.00
2022-12-13T11:14:38.985Z,2524.00
2022-12-13T11:15:34.928Z,2560.00
2022-12-13T11:16:34.961Z,2588.00
2022-12-13T11:17:34.882Z,2580.00
2022-12-13T11:18:34.871Z,2520.00
2022-12-13T11:19:34.896Z,2456.00
2022-12-13T11:20:34.878Z,2412.00
2022-12-13T11:21:34.850Z,2424.00
2022-12-13T11:22:34.823Z,2480.00
2022-12-13T11:23:34.826Z,2548.00
2022-12-13T11:24:34.804Z,2536.00
2022-12-13T11:25:34.818Z,2420.00
2022-12-13T11:26:34.780Z,2356.00
2022-12-13T11:27:34.768Z,2452.00
2022-12-13T11:28:34.757Z,2632.00
2022-12-13T11:29:34.746Z,2796.00
2022-12-13T11:30:34.736Z,2920.00
2022-12-13T11:31:34.789Z,2956.00
2022-12-13T11:32:34.720Z,2840.00
2022-12-13T11:33:34.707Z,2644.00
2022-12-13T11:34:34.703Z,2456.00
2022-12-13T11:35:34.684Z,2280.00
2022-12-13T11:36:34.686Z,2096.00
2022-12-13T11:37:34.660Z,1916.00
2022-12-13T11:38:34.658Z,1800.00
2022-12-13T11:39:34.634Z,1832.00
2022-12-13T11:40:34.625Z,2020.00
2022-12-13T11:41:34.621Z,2280.00
2022-12-13T11:42:34.630Z,2460.00
2022-12-13T11:43:34.602Z,2564.00
2022-12-13T11:44:34.585Z,2636.00
2022-12-13T11:45:34.601Z,2688.00
2022-12-13T11:46:34.554Z,2744.00
2022-12-13T11:47:34.554Z,2808.00
2022-12-13T11:48:34.565Z,2884.00
2022-12-13T11:49:34.550Z,2964.00
2022-12-13T11:50:34.714Z,2992.00
2022-12-13T11:51:34.517Z,2940.00
2022-12-13T11:52:34.499Z,2816.00
2022-12-13T11:53:34.502Z,2672.00
2022-12-13T11:54:34.476Z,2564.00
2022-12-13T11:55:34.463Z,2572.00
2022-12-13T11:56:34.458Z,2684.00
2022-12-13T11:57:34.447Z,2872.00
2022-12-13T11:59:39.774Z,3192.00
2022-12-13T12:00:35.233Z,3296.00
2022-12-13T12:01:38.216Z,3300.00
2022-12-13T12:02:34.454Z,3128.00
2022-12-13T12:03:34.432Z,2888.00
2022-12-13T12:04:34.414Z,2712.00
2022-12-13T12:05:34.358Z,2608.00
2022-12-13T12:06:34.341Z,2568.00
2022-12-13T12:07:34.420Z,2576.00
2022-12-13T12:08:34.325Z,2552.00
2022-12-13T12:09:34.304Z,2464.00
2022-12-13T12:10:34.319Z,2340.00
2022-12-13T12:11:34.293Z,2224.00
2022-12-13T12:12:34.288Z,2140.00
2022-12-13T12:13:34.266Z,2048.00
2022-12-13T12:14:34.259Z,1964.00
2022-12-13T12:15:34.315Z,1948.00
2022-12-13T12:16:34.257Z,2048.00
2022-12-13T12:17:41.995Z,2288.00
2022-12-13T12:18:34.214Z,2504.00
2022-12-13T12:19:34.198Z,2608.00
2022-12-13T12:20:34.263Z,2624.00
2022-12-13T12:22:05.034Z,2680.00
2022-12-13T12:22:34.211Z,2708.00
2022-12-13T12:23:37.357Z,2780.00
2022-12-13T12:24:34.158Z,2936.00
2022-12-13T12:25:34.170Z,3100.00
2022-12-13T12:26:34.142Z,3108.00
2022-12-13T12:27:34.116Z,3084.00
2022-12-13T12:28:34.099Z,3128.00
2022-12-13T12:29:34.097Z,3232.00
2022-12-13T12:30:34.089Z,3232.00
2022-12-13T12:31:34.144Z,3228.00
2022-12-13T12:32:34.058Z,3172.00
2022-12-13T12:33:34.052Z,3084.00
2022-12-13T12:34:34.037Z,3004.00
2022-12-13T12:35:34.020Z,2928.00
2022-12-13T12:36:34.024Z,2828.00
2022-12-13T12:37:34.033Z,2732.00
2022-12-13T12:38:33.995Z,2588.00
2022-12-13T12:39:33.981Z,2564.00
2022-12-13T12:40:52.254Z,2528.00
2022-12-13T12:41:33.967Z,2444.00
2022-12-13T12:42:50.233Z,2272.00
2022-12-13T12:43:34.676Z,2184.00
2022-12-13T12:44:33.939Z,2240.00
2022-12-13T12:46:52.318Z,2300.00
2022-12-13T12:48:41.283Z,2340.00
2022-12-13T12:49:01.345Z,2336.00
2022-12-13T12:49:33.924Z,2292.00
2022-12-13T12:50:33.865Z,2260.00
2022-12-13T12:51:33.855Z,2228.00